createdAt,value
2018-03-04T00:00:53.257Z,34.73
2018-03-04T00:03:20.856Z,34.80
2018-03-04T00:05:48.491Z,37.83
2018-03-04T00:08:16.092Z,34.17
2018-03-04T00:10:44.430Z,35.77
2018-03-04T00:13:12.040Z,38.00
2018-03-04T00:15:40.426Z,36.03
2018-03-04T00:18:09.280Z,34.73
2018-03-04T00:20:36.927Z,35.53
2018-03-04T00:23:04.592Z,33.80
2018-03-04T00:25:32.196Z,34.60
2018-03-04T00:27:59.807Z,33.90
2018-03-04T00:30:27.440Z,37.43
2018-03-04T00:32:55.004Z,38.47
2018-03-04T00:35:22.594Z,37.30
2018-03-04T00:37:50.154Z,40.97
2018-03-04T00:40:17.786Z,34.20
2018-03-04T00:42:46.126Z,36.87
2018-03-04T00:45:14.743Z,35.67
2018-03-04T00:47:43.099Z,39.47
2018-03-04T00:50:10.695Z,34.60
2018-03-04T00:52:39.138Z,37.33
2018-03-04T00:55:06.703Z,37.93
2018-03-04T00:57:34.307Z,37.97
2018-03-04T01:00:01.899Z,40.80
2018-03-04T01:02:29.569Z,40.07
2018-03-04T01:04:57.244Z,38.27
2018-03-04T01:07:24.843Z,37.87
2018-03-04T01:09:53.214Z,38.80
2018-03-04T01:12:20.822Z,41.90
2018-03-04T01:14:48.398Z,35.47
2018-03-04T01:17:15.973Z,37.03
2018-03-04T01:19:43.582Z,35.17
2018-03-04T01:22:12.007Z,34.40
2018-03-04T01:24:39.598Z,36.37
2018-03-04T01:27:07.222Z,41.10
2018-03-04T01:29:34.811Z,37.53
2018-03-04T01:32:02.426Z,39.27
2018-03-04T01:34:30.011Z,37.97
2018-03-04T01:36:57.602Z,38.90
2018-03-04T01:39:25.180Z,38.37
2018-03-04T01:41:52.788Z,38.07
2018-03-04T01:44:20.353Z,37.40
2018-03-04T01:46:48.013Z,43.63
2018-03-04T01:49:15.623Z,35.93
2018-03-04T01:51:52.062Z,33.90
2018-03-04T01:54:20.242Z,37.37
2018-03-04T01:56:47.876Z,31.20
2018-03-04T01:59:16.234Z,31.60
2018-03-04T02:01:44.631Z,37.13
2018-03-04T02:04:13.016Z,39.33
2018-03-04T02:06:40.590Z,36.93
2018-03-04T02:09:08.935Z,41.47
2018-03-04T02:11:36.532Z,36.63
2018-03-04T02:14:04.926Z,36.13
2018-03-04T02:16:32.512Z,33.87
2018-03-04T02:19:00.109Z,32.50
2018-03-04T02:21:27.684Z,32.63
2018-03-04T02:23:56.814Z,34.63
2018-03-04T02:26:24.437Z,32.03
2018-03-04T02:28:52.246Z,29.70
2018-03-04T02:31:19.824Z,26.50
2018-03-04T02:33:47.425Z,26.97
2018-03-04T02:36:15.054Z,21.87
2018-03-04T02:38:42.700Z,22.03
2018-03-04T02:41:10.323Z,21.37
2018-03-04T02:43:38.697Z,17.73
2018-03-04T02:46:06.358Z,21.90
2018-03-04T02:48:34.518Z,37.53
2018-03-04T02:51:02.875Z,22.07
2018-03-04T02:53:30.507Z,21.40
2018-03-04T02:55:59.687Z,16.33
2018-03-04T02:58:27.262Z,14.77
2018-03-04T03:00:54.863Z,31.23
2018-03-04T03:03:22.459Z,32.03
2018-03-04T03:05:50.057Z,28.07
2018-03-04T03:08:18.592Z,18.90
2018-03-04T03:10:46.643Z,18.83
2018-03-04T03:13:14.575Z,13.97
2018-03-04T03:15:43.938Z,21.40
2018-03-04T03:18:12.669Z,19.97
2018-03-04T03:20:41.890Z,22.93
2018-03-04T03:23:11.397Z,18.47
2018-03-04T03:25:39.398Z,19.63
2018-03-04T03:28:09.776Z,17.57
2018-03-04T03:30:38.257Z,18.37
2018-03-04T03:33:06.989Z,24.80
2018-03-04T03:35:35.051Z,17.87
2018-03-04T03:38:04.428Z,23.17
2018-03-04T03:40:32.972Z,20.43
2018-03-04T03:43:00.996Z,13.73
2018-03-04T03:45:29.172Z,13.53
2018-03-04T03:47:57.651Z,12.87
2018-03-04T03:50:25.410Z,12.77
2018-03-04T03:52:54.965Z,12.23
2018-03-04T03:55:23.624Z,10.60
2018-03-04T03:57:51.377Z,11.47
2018-03-04T04:00:20.384Z,11.87
2018-03-04T04:02:48.236Z,11.40
2018-03-04T04:05:16.694Z,12.47
2018-03-04T04:07:44.446Z,11.33
2018-03-04T04:10:12.736Z,12.90
2018-03-04T04:12:40.330Z,14.47
2018-03-04T04:15:07.926Z,18.80
2018-03-04T04:17:35.496Z,19.77
2018-03-04T04:20:03.929Z,16.83
2018-03-04T04:22:31.495Z,13.00
2018-03-04T04:24:59.343Z,12.03
2018-03-04T04:27:26.991Z,12.73
2018-03-04T04:29:54.637Z,13.60
2018-03-04T04:32:22.183Z,17.90
2018-03-04T04:34:50.666Z,15.60
2018-03-04T04:37:18.284Z,16.97
2018-03-04T04:39:45.848Z,14.17
2018-03-04T04:42:13.507Z,7.83
2018-03-04T04:44:41.100Z,7.37
2018-03-04T04:47:08.667Z,8.00
2018-03-04T04:49:36.258Z,6.70
2018-03-04T04:52:03.826Z,10.10
2018-03-04T04:54:32.183Z,10.73
2018-03-04T04:56:59.803Z,9.50
2018-03-04T04:59:27.402Z,8.67
2018-03-04T05:01:54.963Z,12.87
2018-03-04T05:04:22.518Z,10.57
2018-03-04T05:06:50.122Z,9.20
2018-03-04T05:09:17.685Z,9.63
2018-03-04T05:11:45.253Z,10.63
2018-03-04T05:14:13.628Z,7.70
2018-03-04T05:16:41.224Z,7.73
2018-03-04T05:19:08.886Z,6.80
2018-03-04T05:21:36.486Z,7.73
2018-03-04T05:24:04.878Z,5.80
2018-03-04T05:26:32.491Z,6.70
2018-03-04T05:29:00.160Z,7.07
2018-03-04T05:31:27.751Z,6.70
2018-03-04T05:33:55.731Z,6.80
2018-03-04T05:36:23.299Z,6.23
2018-03-04T05:38:50.914Z,7.33
2018-03-04T05:41:18.479Z,7.30
2018-03-04T05:43:46.105Z,7.67
2018-03-04T05:46:13.687Z,7.23
2018-03-04T05:48:41.295Z,7.97
2018-03-04T05:51:08.888Z,8.27
2018-03-04T05:53:36.511Z,7.73
2018-03-04T05:56:04.136Z,7.67
2018-03-04T05:58:31.699Z,6.73
2018-03-04T06:00:59.298Z,7.63
2018-03-04T06:03:26.866Z,8.63
2018-03-04T06:05:55.535Z,7.77
2018-03-04T06:08:23.140Z,8.60
2018-03-04T06:10:50.698Z,8.50
2018-03-04T06:13:18.306Z,6.53
2018-03-04T06:15:45.880Z,5.67
2018-03-04T06:18:13.471Z,6.07
2018-03-04T06:20:41.078Z,6.37
2018-03-04T06:23:08.659Z,5.87
2018-03-04T06:25:36.222Z,5.57
2018-03-04T06:28:03.830Z,5.80
2018-03-04T06:30:31.476Z,5.60
2018-03-04T06:32:59.066Z,4.60
2018-03-04T06:35:26.630Z,5.83
2018-03-04T06:37:54.257Z,4.80
2018-03-04T06:40:21.818Z,4.70
2018-03-04T06:42:49.394Z,4.93
2018-03-04T06:45:16.959Z,3.77
2018-03-04T06:47:44.554Z,5.80
2018-03-04T06:50:12.146Z,5.73
2018-03-04T06:52:39.719Z,4.90
2018-03-04T06:55:07.278Z,5.07
2018-03-04T06:57:34.879Z,4.20
2018-03-04T07:00:03.210Z,4.37
2018-03-04T07:02:30.877Z,4.80
2018-03-04T07:04:58.538Z,4.70
2018-03-04T07:07:26.916Z,4.60
2018-03-04T07:09:54.484Z,5.67
2018-03-04T07:12:22.058Z,3.60
2018-03-04T07:14:49.643Z,3.50
2018-03-04T07:17:17.230Z,3.50
2018-03-04T07:19:44.799Z,3.23
2018-03-04T07:22:12.392Z,3.80
2018-03-04T07:24:40.789Z,3.60
2018-03-04T07:27:08.426Z,4.50
2018-03-04T07:29:36.022Z,5.80
2018-03-04T07:32:03.614Z,3.67
2018-03-04T07:34:31.217Z,3.63
2018-03-04T07:36:58.798Z,3.93
2018-03-04T07:39:26.406Z,3.97
2018-03-04T07:41:53.966Z,4.60
2018-03-04T07:44:21.538Z,3.93
2018-03-04T07:46:49.159Z,3.27
2018-03-04T07:49:16.746Z,3.60
2018-03-04T07:51:44.316Z,3.30
2018-03-04T07:54:12.095Z,3.37
2018-03-04T07:56:39.700Z,3.53
2018-03-04T07:59:07.294Z,4.40
2018-03-04T08:01:34.962Z,3.83
2018-03-04T08:04:02.561Z,4.00
2018-03-04T08:06:30.135Z,4.17
2018-03-04T08:08:58.531Z,3.33
2018-03-04T08:11:26.109Z,3.13
2018-03-04T08:13:53.729Z,3.20
2018-03-04T08:16:23.663Z,2.80
2018-03-04T08:18:51.467Z,3.00
2018-03-04T08:21:19.072Z,3.37
2018-03-04T08:23:47.197Z,2.93
2018-03-04T08:26:26.731Z,3.70
2018-03-04T08:28:55.397Z,2.50
2018-03-04T08:31:23.800Z,2.63
2018-03-04T08:33:51.440Z,2.83
2018-03-04T08:36:19.272Z,2.50
2018-03-04T08:38:47.031Z,3.17
2018-03-04T08:41:14.628Z,2.87
2018-03-04T08:43:42.975Z,3.03
2018-03-04T08:46:10.603Z,3.00
2018-03-04T08:48:39.377Z,2.27
2018-03-04T08:51:07.710Z,2.70
2018-03-04T08:53:35.290Z,2.50
2018-03-04T08:56:02.865Z,2.50
2018-03-04T08:58:30.446Z,2.80
2018-03-04T09:00:58.826Z,3.10
2018-03-04T09:03:26.448Z,3.17
2018-03-04T09:05:54.043Z,3.13
2018-03-04T09:08:21.649Z,3.40
2018-03-04T09:10:49.237Z,2.90
2018-03-04T09:13:16.839Z,3.83
2018-03-04T09:15:44.444Z,3.47
2018-03-04T09:18:12.069Z,3.70
2018-03-04T09:20:39.787Z,2.90
2018-03-04T09:23:07.521Z,3.30
2018-03-04T09:25:35.214Z,3.13
2018-03-04T09:28:02.936Z,2.63
2018-03-04T09:30:30.595Z,3.30
2018-03-04T09:32:59.007Z,3.63
2018-03-04T09:35:28.286Z,3.43
2018-03-04T09:37:56.717Z,4.03
2018-03-04T09:40:26.296Z,3.40
2018-03-04T09:42:53.917Z,3.73
2018-03-04T09:45:21.514Z,3.50
2018-03-04T09:47:49.102Z,3.67
2018-03-04T09:50:16.701Z,3.27
2018-03-04T09:52:44.309Z,3.00
2018-03-04T09:55:11.896Z,3.93
2018-03-04T09:57:39.484Z,3.53
2018-03-04T10:00:07.184Z,3.30
2018-03-04T10:02:34.812Z,3.40
2018-03-04T10:05:02.884Z,3.30
2018-03-04T10:07:30.495Z,3.30
2018-03-04T10:09:58.110Z,4.27
2018-03-04T10:12:25.798Z,3.67
2018-03-04T10:14:53.405Z,3.63
2018-03-04T10:17:20.994Z,4.40
2018-03-04T10:19:48.603Z,3.27
2018-03-04T10:22:16.968Z,3.50
2018-03-04T10:24:44.559Z,3.93
2018-03-04T10:27:12.895Z,4.00
2018-03-04T10:29:40.462Z,3.47
2018-03-04T10:32:08.064Z,3.77
2018-03-04T10:34:35.627Z,3.43
2018-03-04T10:37:04.004Z,3.50
2018-03-04T10:39:31.612Z,4.07
2018-03-04T10:41:59.202Z,3.13
2018-03-04T10:44:26.812Z,3.90
2018-03-04T10:46:55.728Z,3.00
2018-03-04T10:49:23.332Z,3.30
2018-03-04T10:51:50.896Z,3.73
2018-03-04T10:54:18.463Z,3.37
2018-03-04T10:56:46.069Z,3.23
2018-03-04T10:59:13.636Z,2.77
2018-03-04T11:01:44.390Z,3.70
2018-03-04T11:04:12.086Z,3.77
2018-03-04T11:06:39.731Z,4.20
2018-03-04T11:09:07.322Z,3.40
2018-03-04T11:11:34.924Z,3.33
2018-03-04T11:14:02.821Z,2.90
2018-03-04T11:16:30.452Z,3.67
2018-03-04T11:18:58.811Z,3.40
2018-03-04T11:21:26.403Z,3.13
2018-03-04T11:23:53.987Z,3.57
2018-03-04T11:26:21.560Z,3.30
2018-03-04T11:28:49.179Z,4.07
2018-03-04T11:31:17.514Z,3.37
2018-03-04T11:33:45.107Z,3.20
2018-03-04T11:36:13.497Z,3.17
2018-03-04T11:38:41.859Z,2.83
2018-03-04T11:41:09.481Z,3.23
2018-03-04T11:43:37.059Z,2.63
2018-03-04T11:46:04.686Z,2.93
2018-03-04T11:48:32.246Z,3.07
2018-03-04T11:50:59.845Z,2.93
2018-03-04T11:53:27.434Z,3.10
2018-03-04T11:55:55.034Z,3.67
2018-03-04T11:58:23.385Z,3.13
2018-03-04T12:00:50.955Z,3.37
2018-03-04T12:03:19.308Z,2.97
2018-03-04T12:05:46.918Z,2.80
2018-03-04T12:08:14.502Z,2.53
2018-03-04T12:10:42.140Z,2.07
2018-03-04T12:13:10.482Z,2.57
2018-03-04T12:15:38.076Z,3.17
2018-03-04T12:18:06.441Z,1.57
2018-03-04T12:20:34.827Z,1.10
2018-03-04T12:23:02.398Z,1.00
2018-03-04T12:25:29.963Z,1.03
2018-03-04T12:27:58.334Z,0.90
2018-03-04T12:30:25.917Z,1.10
2018-03-04T12:32:54.270Z,1.07
2018-03-04T12:35:22.631Z,1.20
2018-03-04T12:37:50.195Z,0.60
2018-03-04T12:40:17.758Z,0.67
2018-03-04T12:42:45.358Z,1.00
2018-03-04T12:45:12.959Z,0.80
2018-03-04T12:47:40.514Z,0.80
2018-03-04T12:50:08.110Z,1.10
2018-03-04T12:52:35.733Z,1.13
2018-03-04T12:55:03.323Z,1.20
2018-03-04T12:57:30.919Z,1.00
2018-03-04T12:59:58.531Z,1.10
2018-03-04T13:02:26.118Z,1.40
2018-03-04T13:04:53.794Z,1.13
2018-03-04T13:07:21.400Z,1.67
2018-03-04T13:09:49.004Z,1.63
2018-03-04T13:12:17.799Z,1.53
2018-03-04T13:14:46.312Z,1.87
2018-03-04T13:17:13.943Z,1.80
2018-03-04T13:19:41.569Z,1.60
2018-03-04T13:22:09.219Z,1.97
2018-03-04T13:24:38.335Z,2.20
2018-03-04T13:27:05.964Z,1.87
2018-03-04T13:29:33.578Z,1.77
2018-03-04T13:32:01.227Z,2.07
2018-03-04T13:34:28.845Z,2.10
2018-03-04T13:36:56.845Z,2.10
2018-03-04T13:39:24.476Z,1.60
2018-03-04T13:41:52.181Z,1.57
2018-03-04T13:44:19.791Z,1.50
2018-03-04T13:46:48.830Z,1.30
2018-03-04T13:49:17.167Z,1.43
2018-03-04T13:51:44.805Z,1.03
2018-03-04T13:54:12.612Z,1.27
2018-03-04T13:56:40.234Z,1.27
2018-03-04T13:59:07.831Z,0.83
2018-03-04T14:01:35.438Z,1.33
2018-03-04T14:04:03.830Z,0.90
2018-03-04T14:06:31.465Z,1.23
2018-03-04T14:08:59.248Z,1.37
2018-03-04T14:11:27.040Z,0.83
2018-03-04T14:13:55.791Z,1.13
2018-03-04T14:16:23.452Z,0.90
2018-03-04T14:18:51.081Z,1.20
2018-03-04T14:21:18.716Z,0.77
2018-03-04T14:23:46.342Z,0.87
2018-03-04T14:26:14.743Z,1.03
2018-03-04T14:28:42.886Z,0.80
2018-03-04T14:31:11.558Z,0.90
2018-03-04T14:33:39.160Z,0.93
2018-03-04T14:36:07.641Z,1.27
2018-03-04T14:38:35.459Z,0.97
2018-03-04T14:41:03.297Z,0.93
2018-03-04T14:43:31.649Z,1.40
2018-03-04T14:45:59.242Z,1.50
2018-03-04T14:48:26.835Z,1.10
2018-03-04T14:50:54.410Z,1.00
2018-03-04T14:53:22.045Z,1.50
2018-03-04T14:55:49.639Z,1.03
2018-03-04T14:58:17.246Z,0.93
2018-03-04T15:00:44.856Z,1.17
2018-03-04T15:03:12.466Z,1.53
2018-03-04T15:05:40.062Z,0.90
2018-03-04T15:08:07.667Z,1.30
2018-03-04T15:10:35.258Z,1.60
2018-03-04T15:13:02.842Z,1.20
2018-03-04T15:15:30.458Z,2.20
2018-03-04T15:17:58.110Z,1.93
2018-03-04T15:20:25.699Z,1.97
2018-03-04T15:22:53.342Z,3.87
2018-03-04T15:25:20.956Z,1.30
2018-03-04T15:27:49.302Z,2.67
2018-03-04T15:30:16.898Z,4.33
2018-03-04T15:32:46.919Z,2.87
2018-03-04T15:35:14.675Z,4.37
2018-03-04T15:37:42.368Z,2.90
2018-03-04T15:40:10.004Z,3.40
2018-03-04T15:42:38.361Z,3.90
2018-03-04T15:45:05.979Z,1.90
2018-03-04T15:47:33.571Z,3.30
2018-03-04T15:50:01.180Z,3.10
2018-03-04T15:52:28.779Z,3.20
2018-03-04T15:54:56.377Z,4.10
2018-03-04T15:57:23.997Z,2.80
2018-03-04T15:59:51.644Z,3.63
2018-03-04T16:02:19.977Z,2.50
2018-03-04T16:04:47.644Z,1.90
2018-03-04T16:07:15.461Z,2.40
2018-03-04T16:09:43.034Z,1.70
2018-03-04T16:12:11.416Z,1.53
2018-03-04T16:14:39.016Z,1.27
2018-03-04T16:17:06.771Z,1.20
2018-03-04T16:19:34.427Z,1.60
2018-03-04T16:22:02.722Z,2.00
2018-03-04T16:24:30.388Z,1.60
2018-03-04T16:26:58.258Z,1.60
2018-03-04T16:29:25.846Z,1.57
2018-03-04T16:31:54.218Z,1.60
2018-03-04T16:34:21.799Z,1.60
2018-03-04T16:36:49.468Z,1.30
2018-03-04T16:39:17.115Z,1.50
2018-03-04T16:41:44.726Z,1.00
2018-03-04T16:44:12.314Z,0.90
2018-03-04T16:46:39.944Z,0.97
2018-03-04T16:49:07.560Z,1.20
2018-03-04T16:51:35.199Z,1.40
2018-03-04T16:54:02.867Z,1.53
2018-03-04T16:56:30.483Z,1.13
2018-03-04T16:58:58.937Z,1.03
2018-03-04T17:01:26.531Z,1.10
2018-03-04T17:03:54.121Z,1.23
2018-03-04T17:06:22.575Z,1.10
2018-03-04T17:08:50.912Z,1.20
2018-03-04T17:11:18.551Z,1.10
2018-03-04T17:13:46.158Z,1.37
2018-03-04T17:16:13.741Z,1.30
2018-03-04T17:18:42.120Z,1.67
2018-03-04T17:21:11.217Z,1.60
2018-03-04T17:23:38.784Z,1.90
2018-03-04T17:26:07.181Z,1.50
2018-03-04T17:28:35.090Z,1.70
2018-03-04T17:31:02.716Z,1.60
2018-03-04T17:33:30.290Z,1.30
2018-03-04T17:35:57.883Z,1.20
2018-03-04T17:38:25.446Z,2.13
2018-03-04T17:40:53.028Z,1.40
2018-03-04T17:43:20.651Z,1.70
2018-03-04T17:45:48.255Z,1.60
2018-03-04T17:48:15.827Z,1.67
2018-03-04T17:50:43.473Z,1.90
2018-03-04T17:53:11.064Z,2.10
2018-03-04T17:55:38.626Z,1.57
2018-03-04T17:58:06.210Z,1.47
2018-03-04T18:00:34.578Z,1.43
2018-03-04T18:03:02.166Z,1.80
2018-03-04T18:05:29.760Z,1.80
2018-03-04T18:07:57.309Z,1.70
2018-03-04T18:10:24.908Z,1.80
2018-03-04T18:12:52.508Z,2.17
2018-03-04T18:15:20.844Z,1.80
2018-03-04T18:17:48.467Z,2.00
2018-03-04T18:20:16.044Z,1.77
2018-03-04T18:22:43.624Z,2.00
2018-03-04T18:25:11.223Z,1.97
2018-03-04T18:27:39.570Z,1.80
2018-03-04T18:30:07.199Z,2.13
2018-03-04T18:32:34.795Z,1.93
2018-03-04T18:35:02.365Z,1.97
2018-03-04T18:37:33.083Z,1.63
2018-03-04T18:40:00.653Z,2.30
2018-03-04T18:42:28.247Z,2.20
2018-03-04T18:44:55.838Z,2.17
2018-03-04T18:47:23.428Z,2.30
2018-03-04T18:49:51.022Z,2.10
2018-03-04T18:52:19.360Z,2.17
2018-03-04T18:54:46.964Z,2.57
2018-03-04T18:57:14.577Z,2.47
2018-03-04T18:59:42.193Z,2.50
2018-03-04T19:02:09.782Z,2.30
2018-03-04T19:04:38.213Z,2.33
2018-03-04T19:07:05.814Z,2.43
2018-03-04T19:09:34.176Z,2.60
2018-03-04T19:12:01.799Z,2.30
2018-03-04T19:14:29.421Z,2.43
2018-03-04T19:16:57.069Z,2.50
2018-03-04T19:19:24.690Z,2.60
2018-03-04T19:21:52.251Z,2.40
2018-03-04T19:24:20.800Z,2.30
2018-03-04T19:26:48.374Z,2.57
2018-03-04T19:29:16.724Z,2.40
2018-03-04T19:31:44.340Z,1.90
2018-03-04T19:34:12.128Z,2.73
2018-03-04T19:36:39.715Z,1.67
2018-03-04T19:39:07.292Z,1.40
2018-03-04T19:41:34.934Z,1.50
2018-03-04T19:44:02.513Z,1.40
2018-03-04T19:46:30.111Z,1.30
2018-03-04T19:48:58.474Z,1.23
2018-03-04T19:51:26.871Z,1.50
2018-03-04T19:53:55.195Z,1.20
2018-03-04T19:56:22.850Z,1.07
2018-03-04T19:58:50.428Z,1.20
2018-03-04T20:01:18.013Z,1.03
2018-03-04T20:03:45.606Z,0.70
2018-03-04T20:06:13.983Z,0.90
2018-03-04T20:08:41.552Z,0.73
2018-03-04T20:11:09.909Z,0.83
2018-03-04T20:13:37.509Z,0.93
2018-03-04T20:16:05.108Z,0.70
2018-03-04T20:18:32.674Z,0.83
2018-03-04T20:21:00.279Z,0.70
2018-03-04T20:23:28.630Z,0.57
2018-03-04T20:25:56.191Z,1.47
2018-03-04T20:28:23.791Z,1.00
2018-03-04T20:30:52.132Z,1.30
2018-03-04T20:33:19.723Z,1.20
2018-03-04T20:35:48.355Z,1.23
2018-03-04T20:38:15.949Z,1.00
2018-03-04T20:40:43.528Z,1.33
2018-03-04T20:43:11.111Z,1.13
2018-03-04T20:45:38.709Z,1.27
2018-03-04T20:48:06.280Z,1.10
2018-03-04T20:50:35.154Z,1.33
2018-03-04T20:53:02.832Z,0.93
2018-03-04T20:55:30.499Z,0.93
2018-03-04T20:57:58.063Z,1.50
2018-03-04T21:00:25.661Z,1.30
2018-03-04T21:02:53.284Z,1.43
2018-03-04T21:05:20.874Z,1.60
2018-03-04T21:07:49.952Z,1.40
2018-03-04T21:10:17.539Z,1.20
2018-03-04T21:12:45.475Z,1.70
2018-03-04T21:15:13.076Z,1.43
2018-03-04T21:17:40.647Z,1.20
2018-03-04T21:20:08.305Z,1.20
2018-03-04T21:22:35.964Z,1.73
2018-03-04T21:25:03.623Z,1.50
2018-03-04T21:27:31.206Z,1.53
2018-03-04T21:29:58.800Z,1.20
2018-03-04T21:32:26.360Z,1.70
2018-03-04T21:34:53.954Z,1.97
2018-03-04T21:37:21.703Z,2.30
2018-03-04T21:39:49.308Z,1.90
2018-03-04T21:42:16.954Z,1.80
2018-03-04T21:44:44.562Z,1.97
2018-03-04T21:47:12.174Z,2.03
2018-03-04T21:49:42.303Z,1.97
2018-03-04T21:52:10.659Z,2.67
2018-03-04T21:54:38.243Z,2.23
2018-03-04T21:57:05.844Z,1.87
2018-03-04T21:59:33.439Z,2.07
2018-03-04T22:02:02.541Z,2.73
2018-03-04T22:04:30.169Z,2.10
2018-03-04T22:06:58.516Z,2.00
2018-03-04T22:09:26.110Z,1.80
2018-03-04T22:11:54.040Z,2.13
2018-03-04T22:14:21.539Z,2.23
2018-03-04T22:16:50.599Z,2.20
2018-03-04T22:19:18.223Z,1.90
2018-03-04T22:21:46.554Z,2.67
2018-03-04T22:24:14.158Z,2.40
2018-03-04T22:26:41.760Z,2.00
2018-03-04T22:29:09.359Z,1.97
2018-03-04T22:31:36.988Z,2.10
2018-03-04T22:34:04.584Z,2.00
2018-03-04T22:36:32.174Z,2.30
2018-03-04T22:39:00.519Z,2.00
2018-03-04T22:41:29.322Z,1.93
2018-03-04T22:43:57.083Z,2.20
2018-03-04T22:46:25.086Z,1.93
2018-03-04T22:48:52.706Z,2.30
2018-03-04T22:51:20.287Z,1.97
2018-03-04T22:53:48.782Z,1.70
2018-03-04T22:56:16.406Z,1.80
2018-03-04T22:58:44.130Z,2.27
2018-03-04T23:01:12.474Z,2.07
2018-03-04T23:03:40.116Z,2.00
2018-03-04T23:06:07.721Z,2.17
2018-03-04T23:08:35.316Z,2.00
2018-03-04T23:11:02.883Z,1.47
2018-03-04T23:13:30.488Z,2.20
2018-03-04T23:15:59.441Z,1.97
2018-03-04T23:18:27.036Z,2.10
2018-03-04T23:20:54.699Z,1.77
2018-03-04T23:23:22.399Z,1.60
2018-03-04T23:25:49.984Z,1.97
2018-03-04T23:28:18.356Z,1.77
2018-03-04T23:30:45.943Z,1.50
2018-03-04T23:33:13.586Z,1.63
2018-03-04T23:35:41.988Z,1.17
2018-03-04T23:38:09.560Z,1.87
2018-03-04T23:40:37.232Z,1.40
2018-03-04T23:43:04.898Z,1.60
2018-03-04T23:45:32.513Z,2.10
2018-03-04T23:48:00.111Z,1.70
2018-03-04T23:50:28.036Z,1.60
2018-03-04T23:52:55.650Z,1.47
2018-03-04T23:55:23.343Z,1.43
2018-03-04T23:57:50.949Z,1.90
